| time (UTC) | temp F | wind direction | speed MPH | gust MPH | rain 1hr in | rain 24hr in | rain mn in | humidity % | barometer mb |
| 20260903230536 | 95 | 158 | 4.0 | 9.0 | 0.00 | 0.01 | 0.01 | 54 | 1010.2 |
| 20260903225636 | 95 | 158 | 4.0 | 11.0 | 0.00 | 0.01 | 0.01 | 53 | 1010.1 |
| 20260903224516 | 96 | 158 | 4.0 | 9.0 | 0.00 | 0.01 | 0.01 | 54 | 1010.0 |
| 20260903223515 | 96 | 158 | 4.0 | 11.0 | 0.00 | 0.01 | 0.01 | 53 | 1009.9 |
| 20260903222516 | 95 | 135 | 5.0 | 12.0 | 0.00 | 0.01 | 0.01 | 53 | 1009.9 |
| 20260903221516 | 96 | 158 | 6.0 | 16.0 | 0.00 | 0.01 | 0.01 | 53 | 1010.0 |
| 20260903220516 | 96 | 158 | 5.0 | 15.0 | 0.00 | 0.01 | 0.01 | 53 | 1010.0 |
| 20260903215516 | 96 | 158 | 4.0 | 8.0 | 0.00 | 0.01 | 0.01 | 53 | 1010.0 |
| 20260903214516 | 96 | 158 | 5.0 | 14.0 | 0.00 | 0.01 | 0.01 | 53 | 1010.0 |
| 20260903213516 | 96 | 158 | 6.0 | 14.0 | 0.00 | 0.01 | 0.01 | 52 | 1010.0 |
| 20260903212516 | 96 | 158 | 6.0 | 12.0 | 0.00 | 0.01 | 0.01 | 52 | 1010.1 |
| 20260903211515 | 95 | 158 | 5.0 | 11.0 | 0.00 | 0.01 | 0.01 | 53 | 1010.2 |
| 20260903210515 | 95 | 158 | 6.0 | 15.0 | 0.00 | 0.01 | 0.01 | 53 | 1010.4 |
| 20260903205516 | 96 | 158 | 5.0 | 12.0 | 0.00 | 0.01 | 0.01 | 53 | 1010.4 |
| 20260903204516 | 95 | 158 | 4.0 | 9.0 | 0.00 | 0.01 | 0.01 | 54 | 1010.4 |
| 20260903203515 | 96 | 158 | 4.0 | 10.0 | 0.00 | 0.01 | 0.01 | 53 | 1010.6 |
| 20260903202516 | 95 | 158 | 5.0 | 12.0 | 0.00 | 0.01 | 0.01 | 54 | 1010.5 |
| 20260903201515 | 95 | 158 | 6.0 | 12.0 | 0.00 | 0.01 | 0.01 | 54 | 1010.5 |
| 20260903200516 | 95 | 158 | 5.0 | 12.0 | 0.00 | 0.01 | 0.01 | 55 | 1010.6 |
| 20260903195515 | 95 | 158 | 4.0 | 10.0 | 0.00 | 0.01 | 0.01 | 55 | 1010.8 |
| 20260903194516 | 95 | 180 | 4.0 | 9.0 | 0.00 | 0.01 | 0.01 | 56 | 1010.8 |
| 20260903193515 | 94 | 158 | 6.0 | 11.0 | 0.00 | 0.01 | 0.01 | 54 | 1011.1 |
| 20260903192516 | 94 | 158 | 5.0 | 15.0 | 0.00 | 0.01 | 0.01 | 55 | 1011.2 |
| 20260903191516 | 94 | 158 | 4.0 | 11.0 | 0.00 | 0.01 | 0.01 | 56 | 1011.3 |
| 20260903190515 | 93 | 158 | 5.0 | 13.0 | 0.00 | 0.01 | 0.01 | 58 | 1011.3 |
| 20260903185515 | 93 | 158 | 5.0 | 15.0 | 0.00 | 0.01 | 0.01 | 59 | 1011.5 |
| 20260903184515 | 93 | 158 | 3.0 | 6.0 | 0.00 | 0.01 | 0.01 | 59 | 1011.5 |
| 20260903183515 | 92 | 158 | 2.0 | 6.0 | 0.00 | 0.01 | 0.01 | 62 | 1011.7 |
| 20260903182515 | 91 | 113 | 2.0 | 4.0 | 0.00 | 0.01 | 0.01 | 63 | 1011.9 |
| 20260903181515 | 91 | 158 | 3.0 | 6.0 | 0.00 | 0.01 | 0.01 | 62 | 1012.1 |
| 20260903180515 | 90 | 158 | 2.0 | 6.0 | 0.00 | 0.01 | 0.01 | 63 | 1012.1 |
| 20260903175535 | 90 | 158 | 5.0 | 9.0 | 0.00 | 0.01 | 0.01 | 63 | 1012.1 |
| 20260903174517 | 89 | 180 | 3.0 | 8.0 | 0.00 | 0.01 | 0.01 | 65 | 1012.2 |
| 20260903173517 | 88 | 113 | 1.0 | 2.0 | 0.00 | 0.01 | 0.01 | 72 | 1012.5 |
| 20260903172517 | 86 | 113 | 1.0 | 2.0 | 0.01 | 0.01 | 0.01 | 73 | 1012.5 |
| 20260903171517 | 85 | 113 | 1.0 | 2.0 | 0.01 | 0.01 | 0.01 | 75 | 1012.6 |
| 20260903170517 | 84 | 113 | 2.0 | 4.0 | 0.01 | 0.01 | 0.01 | 75 | 1012.4 |
| 20260903165517 | 83 | 113 | 1.0 | 4.0 | 0.01 | 0.01 | 0.01 | 77 | 1012.4 |
| 20260903164519 | 83 | 113 | 1.0 | 2.0 | 0.01 | 0.01 | 0.01 | 80 | 1012.4 |
| 20260903163517 | 84 | 0.0 | 2.0 | 0.01 | 0.01 | 0.01 | 77 | 1012.6 | |
| 20260903162517 | 84 | 0.0 | 1.0 | 0.00 | 0.00 | 0.00 | 73 | 1012.8 | |
| 20260903161517 | 84 | 90 | 1.0 | 2.0 | 0.00 | 0.00 | 0.00 | 74 | 1012.6 |
| 20260903160517 | 83 | 0.0 | 2.0 | 0.00 | 0.00 | 0.00 | 75 | 1012.7 | |
| 20260903155517 | 83 | 0.0 | 1.0 | 0.00 | 0.00 | 0.00 | 76 | 1012.8 | |
| 20260903154537 | 82 | 0.0 | 0.0 | 0.00 | 0.00 | 0.00 | 78 | 1012.7 | |
| 20260903153517 | 82 | 0.0 | 2.0 | 0.00 | 0.00 | 0.00 | 78 | 1013.0 | |
| 20260903152517 | 81 | 113 | 1.0 | 3.0 | 0.00 | 0.00 | 0.00 | 78 | 1012.6 |
| 20260903151557 | 81 | 113 | 1.0 | 2.0 | 0.00 | 0.00 | 0.00 | 80 | 1012.4 |
| 20260903150517 | 80 | 0.0 | 1.0 | 0.00 | 0.00 | 0.00 | 81 | 1012.4 | |
| 20260903145517 | 80 | 0.0 | 1.0 | 0.00 | 0.00 | 0.00 | 81 | 1012.5 | |
| 20260903144517 | 80 | 158 | 1.0 | 3.0 | 0.00 | 0.00 | 0.00 | 79 | 1012.3 |
| 20260903143517 | 80 | 180 | 1.0 | 2.0 | 0.00 | 0.00 | 0.00 | 77 | 1012.4 |
| 20260903142517 | 80 | 0.0 | 2.0 | 0.00 | 0.00 | 0.00 | 77 | 1012.5 | |
| 20260903141517 | 80 | 0.0 | 2.0 | 0.00 | 0.00 | 0.00 | 77 | 1012.5 | |
| 20260903140517 | 80 | 113 | 1.0 | 3.0 | 0.00 | 0.00 | 0.00 | 76 | 1012.7 |
| 20260903135537 | 79 | 113 | 1.0 | 3.0 | 0.00 | 0.00 | 0.00 | 78 | 1012.6 |
| 20260903134517 | 78 | 0.0 | 2.0 | 0.00 | 0.00 | 0.00 | 80 | 1012.5 | |
| 20260903133517 | 78 | 113 | 1.0 | 3.0 | 0.00 | 0.00 | 0.00 | 80 | 1012.6 |
| 20260903132517 | 78 | 0.0 | 1.0 | 0.00 | 0.00 | 0.00 | 80 | 1012.6 | |
| 20260903131537 | 78 | 0.0 | 3.0 | 0.00 | 0.00 | 0.00 | 79 | 1012.7 | |
| 20260903130517 | 79 | 90 | 1.0 | 2.0 | 0.00 | 0.00 | 0.00 | 78 | 1012.9 |
| 20260903125517 | 79 | 0.0 | 0.0 | 0.00 | 0.00 | 0.00 | 75 | 1012.9 | |
| 20260903124518 | 80 | 0.0 | 2.0 | 0.00 | 0.00 | 0.00 | 75 | 1012.9 | |
| 20260903123517 | 80 | 0.0 | 1.0 | 0.00 | 0.00 | 0.00 | 72 | 1012.8 | |
| 20260903122517 | 81 | 0.0 | 2.0 | 0.00 | 0.00 | 0.00 | 70 | 1012.7 | |
| 20260903121517 | 81 | 158 | 1.0 | 2.0 | 0.00 | 0.00 | 0.00 | 69 | 1012.5 |
| 20260903120517 | 81 | 180 | 1.0 | 3.0 | 0.00 | 0.00 | 0.00 | 69 | 1012.5 |
| 20260903115537 | 81 | 203 | 2.0 | 3.0 | 0.00 | 0.00 | 0.00 | 69 | 1012.5 |
| 20260903114517 | 81 | 158 | 2.0 | 5.0 | 0.00 | 0.00 | 0.00 | 68 | 1012.2 |
| 20260903113517 | 81 | 158 | 2.0 | 6.0 | 0.00 | 0.00 | 0.00 | 68 | 1012.2 |
| 20260903112537 | 81 | 158 | 3.0 | 7.0 | 0.00 | 0.00 | 0.00 | 67 | 1012.1 |
| 20260903111517 | 81 | 203 | 2.0 | 5.0 | 0.00 | 0.00 | 0.00 | 69 | 1012.2 |
| 20260903110517 | 81 | 158 | 2.0 | 4.0 | 0.00 | 0.00 | 0.00 | 69 | 1012.1 |
| 20260903105557 | 81 | 158 | 2.0 | 5.0 | 0.00 | 0.00 | 0.00 | 69 | 1012.3 |
| 20260903104516 | 81 | 158 | 1.0 | 3.0 | 0.00 | 0.00 | 0.00 | 69 | 1012.5 |
| 20260903103536 | 81 | 158 | 1.0 | 5.0 | 0.00 | 0.00 | 0.00 | 69 | 1012.4 |
| 20260903102517 | 80 | 158 | 2.0 | 6.0 | 0.00 | 0.00 | 0.00 | 70 | 1012.3 |
| 20260903101537 | 80 | 158 | 2.0 | 5.0 | 0.00 | 0.00 | 0.00 | 71 | 1012.3 |
| 20260903100516 | 80 | 158 | 2.0 | 4.0 | 0.00 | 0.00 | 0.00 | 71 | 1012.1 |
| 20260903095517 | 80 | 135 | 2.0 | 5.0 | 0.00 | 0.00 | 0.00 | 71 | 1012.1 |
| 20260903094516 | 80 | 158 | 3.0 | 7.0 | 0.00 | 0.00 | 0.00 | 71 | 1012.1 |
| 20260903093516 | 80 | 158 | 2.0 | 5.0 | 0.00 | 0.00 | 0.00 | 71 | 1012.3 |
| 20260903092517 | 80 | 158 | 2.0 | 3.0 | 0.00 | 0.00 | 0.00 | 71 | 1012.2 |
| 20260903091516 | 80 | 158 | 2.0 | 5.0 | 0.00 | 0.00 | 0.00 | 71 | 1012.3 |
| 20260903090517 | 80 | 158 | 3.0 | 5.0 | 0.00 | 0.00 | 0.00 | 71 | 1012.4 |
| 20260903085516 | 80 | 158 | 2.0 | 5.0 | 0.00 | 0.00 | 0.00 | 70 | 1012.3 |
| 20260903084517 | 80 | 158 | 2.0 | 6.0 | 0.00 | 0.00 | 0.00 | 71 | 1012.4 |
| 20260903083516 | 80 | 158 | 3.0 | 6.0 | 0.00 | 0.00 | 0.00 | 71 | 1012.3 |
| 20260903082536 | 80 | 158 | 3.0 | 6.0 | 0.00 | 0.00 | 0.00 | 72 | 1012.3 |
| 20260903081516 | 80 | 158 | 3.0 | 6.0 | 0.00 | 0.00 | 0.00 | 70 | 1012.2 |
| 20260903080516 | 80 | 158 | 2.0 | 5.0 | 0.00 | 0.00 | 0.00 | 71 | 1012.3 |
| 20260903075516 | 80 | 158 | 2.0 | 5.0 | 0.00 | 0.00 | 0.00 | 71 | 1012.2 |
| 20260903074516 | 81 | 180 | 2.0 | 5.0 | 0.00 | 0.00 | 0.00 | 70 | 1012.2 |
| 20260903073516 | 81 | 158 | 3.0 | 7.0 | 0.00 | 0.00 | 0.00 | 70 | 1012.2 |
| 20260903072517 | 81 | 158 | 3.0 | 6.0 | 0.00 | 0.00 | 0.00 | 69 | 1012.2 |
| 20260903071557 | 82 | 203 | 2.0 | 6.0 | 0.00 | 0.00 | 0.00 | 68 | 1012.2 |
| 20260903070516 | 82 | 180 | 3.0 | 9.0 | 0.00 | 0.00 | 0.00 | 67 | 1012.3 |
| 20260903065516 | 83 | 180 | 3.0 | 7.0 | 0.00 | 0.00 | 0.00 | 66 | 1012.3 |
| 20260903064516 | 83 | 158 | 3.0 | 8.0 | 0.00 | 0.00 | 0.00 | 65 | 1012.4 |
| 20260903063516 | 83 | 158 | 3.0 | 9.0 | 0.00 | 0.00 | 0.00 | 65 | 1012.4 |
| 20260903062516 | 83 | 158 | 3.0 | 8.0 | 0.00 | 0.00 | 0.00 | 64 | 1012.3 |
| 20260903061516 | 84 | 158 | 4.0 | 10.0 | 0.00 | 0.00 | 0.00 | 64 | 1012.3 |
| 20260903060537 | 84 | 158 | 4.0 | 10.0 | 0.00 | 0.00 | 0.00 | 64 | 1012.4 |
| 20260903055516 | 84 | 158 | 3.0 | 8.0 | 0.00 | 0.00 | 0.00 | 64 | 1012.4 |
| 20260903054536 | 84 | 158 | 4.0 | 10.0 | 0.00 | 0.00 | 0.00 | 64 | 1012.4 |
| 20260903053516 | 84 | 158 | 3.0 | 8.0 | 0.00 | 0.00 | 0.00 | 64 | 1012.4 |
| 20260903052516 | 84 | 158 | 3.0 | 7.0 | 0.00 | 0.00 | 0.00 | 64 | 1012.2 |
| 20260903051516 | 84 | 158 | 4.0 | 8.0 | 0.00 | 0.00 | 0.00 | 64 | 1012.2 |
| 20260903050516 | 84 | 180 | 3.0 | 7.0 | 0.00 | 0.00 | 0.00 | 64 | 1012.3 |
| 20260903045517 | 84 | 158 | 4.0 | 8.0 | 0.00 | 0.00 | 0.00 | 63 | 1012.3 |
| 20260903044517 | 85 | 158 | 3.0 | 8.0 | 0.00 | 0.00 | 0.00 | 63 | 1012.3 |
| 20260903043517 | 85 | 158 | 5.0 | 9.0 | 0.00 | 0.00 | 0.00 | 62 | 1012.3 |
| 20260903042516 | 85 | 158 | 5.0 | 10.0 | 0.00 | 0.00 | 0.00 | 62 | 1012.0 |
| 20260903041537 | 85 | 158 | 4.0 | 9.0 | 0.00 | 0.00 | 0.00 | 62 | 1012.1 |
| 20260903040517 | 85 | 158 | 4.0 | 8.0 | 0.00 | 0.00 | 0.00 | 62 | 1012.1 |
| 20260903035517 | 85 | 158 | 4.0 | 7.0 | 0.00 | 0.00 | 0.00 | 62 | 1012.0 |
| 20260903034516 | 86 | 158 | 3.0 | 10.0 | 0.00 | 0.00 | 0.00 | 61 | 1011.9 |
| 20260903033517 | 86 | 158 | 4.0 | 9.0 | 0.00 | 0.00 | 0.00 | 61 | 1012.0 |
| 20260903032516 | 86 | 158 | 3.0 | 7.0 | 0.00 | 0.00 | 0.00 | 61 | 1012.0 |
| 20260903031517 | 87 | 158 | 4.0 | 9.0 | 0.00 | 0.00 | 0.00 | 60 | 1011.9 |
| 20260903030516 | 87 | 158 | 4.0 | 8.0 | 0.00 | 0.00 | 0.00 | 59 | 1011.9 |
| 20260903025516 | 88 | 158 | 3.0 | 7.0 | 0.00 | 0.00 | 0.00 | 58 | 1011.9 |
| 20260903024516 | 88 | 158 | 4.0 | 11.0 | 0.00 | 0.00 | 0.00 | 57 | 1011.8 |
| 20260903023516 | 88 | 158 | 3.0 | 6.0 | 0.00 | 0.00 | 0.00 | 56 | 1011.7 |
| 20260903022516 | 89 | 158 | 4.0 | 10.0 | 0.00 | 0.00 | 0.00 | 56 | 1011.6 |
| 20260903021516 | 89 | 158 | 3.0 | 7.0 | 0.00 | 0.00 | 0.00 | 56 | 1011.5 |
| 20260903020516 | 88 | 158 | 3.0 | 6.0 | 0.00 | 0.00 | 0.00 | 57 | 1011.5 |
| 20260903015516 | 89 | 158 | 2.0 | 5.0 | 0.00 | 0.00 | 0.00 | 57 | 1011.3 |
| 20260903014536 | 89 | 158 | 2.0 | 6.0 | 0.00 | 0.00 | 0.00 | 56 | 1011.3 |
| 20260903013516 | 89 | 158 | 2.0 | 6.0 | 0.00 | 0.00 | 0.00 | 56 | 1011.3 |
| 20260903012657 | 90 | 158 | 3.0 | 5.0 | 0.00 | 0.00 | 0.00 | 56 | 1011.0 |
| 20260903011516 | 90 | 158 | 2.0 | 4.0 | 0.00 | 0.00 | 0.00 | 56 | 1010.9 |
| 20260903010516 | 91 | 158 | 2.0 | 5.0 | 0.00 | 0.00 | 0.00 | 56 | 1011.1 |
| 20260903005536 | 91 | 158 | 2.0 | 4.0 | 0.00 | 0.00 | 0.00 | 56 | 1011.0 |
| 20260903004536 | 92 | 158 | 2.0 | 4.0 | 0.00 | 0.00 | 0.00 | 55 | 1011.1 |
| 20260903003516 | 92 | 158 | 1.0 | 4.0 | 0.00 | 0.00 | 0.00 | 55 | 1011.2 |
| 20260903002516 | 93 | 158 | 2.0 | 5.0 | 0.00 | 0.00 | 0.00 | 54 | 1011.2 |
| 20260903001536 | 94 | 158 | 2.0 | 4.0 | 0.00 | 0.00 | 0.00 | 53 | 1011.2 |
| 20260903000516 | 95 | 180 | 2.0 | 5.0 | 0.00 | 0.00 | 0.00 | 52 | 1011.1 |
| 20260902235536 | 95 | 158 | 2.0 | 7.0 | 0.00 | 0.00 | 0.00 | 51 | 1011.3 |
| 20260902234516 | 95 | 158 | 2.0 | 8.0 | 0.00 | 0.00 | 0.00 | 51 | 1011.4 |
| 20260902233516 | 96 | 158 | 2.0 | 7.0 | 0.00 | 0.00 | 0.00 | 50 | 1011.4 |
| 20260902232516 | 96 | 158 | 2.0 | 8.0 | 0.00 | 0.00 | 0.00 | 48 | 1011.4 |
| 20260902231516 | 96 | 158 | 2.0 | 5.0 | 0.00 | 0.00 | 0.00 | 49 | 1011.4 |